createdAt,value
2018-01-27T00:00:29.487Z,93.96
2018-01-27T00:01:56.698Z,94.41
2018-01-27T00:03:23.862Z,94.73
2018-01-27T00:04:54.945Z,94.52
2018-01-27T00:06:17.748Z,94.69
2018-01-27T00:07:44.849Z,94.91
2018-01-27T00:09:12.129Z,94.84
2018-01-27T00:10:39.090Z,95.45
2018-01-27T00:12:10.388Z,95.60
2018-01-27T00:13:37.629Z,95.45
2018-01-27T00:15:04.876Z,95.65
2018-01-27T00:16:28.075Z,95.56
2018-01-27T00:17:55.264Z,95.35
2018-01-27T00:19:22.420Z,95.22
2018-01-27T00:20:49.664Z,95.11
2018-01-27T00:22:16.845Z,94.90
2018-01-27T00:23:48.088Z,94.79
2018-01-27T00:25:11.320Z,94.70
2018-01-27T00:26:38.354Z,94.58
2018-01-27T00:28:05.736Z,94.31
2018-01-27T00:29:32.922Z,94.21
2018-01-27T00:31:00.139Z,94.78
2018-01-27T00:32:27.088Z,95.02
2018-01-27T00:33:58.337Z,94.66
2018-01-27T00:35:21.529Z,95.06
2018-01-27T00:36:48.802Z,95.15
2018-01-27T00:38:20.181Z,95.01
2018-01-27T00:39:47.410Z,94.78
2018-01-27T00:41:10.822Z,94.77
2018-01-27T00:42:41.800Z,95.38
2018-01-27T00:44:04.828Z,95.52
2018-01-27T00:45:32.043Z,95.47
2018-01-27T00:46:59.279Z,95.31
2018-01-27T00:48:30.345Z,95.16
2018-01-27T00:49:53.498Z,94.98
2018-01-27T00:51:24.619Z,94.63
2018-01-27T00:52:47.749Z,94.81
2018-01-27T00:54:19.159Z,94.40
2018-01-27T00:55:46.419Z,94.80
2018-01-27T00:57:09.456Z,95.25
2018-01-27T00:58:36.646Z,95.52
2018-01-27T01:00:04.030Z,95.47
2018-01-27T01:01:31.085Z,95.52
2018-01-27T01:03:02.032Z,95.44
2018-01-27T01:04:25.261Z,95.29
2018-01-27T01:05:52.476Z,95.14
2018-01-27T01:07:19.769Z,95.24
2018-01-27T01:08:46.861Z,95.17
2018-01-27T01:10:14.176Z,94.99
2018-01-27T01:11:41.440Z,95.43
2018-01-27T01:13:12.676Z,95.48
2018-01-27T01:14:40.014Z,95.39
2018-01-27T01:16:03.095Z,95.22
2018-01-27T01:17:34.142Z,95.06
2018-01-27T01:18:57.245Z,94.90
2018-01-27T01:20:24.369Z,94.84
2018-01-27T01:21:55.698Z,94.80
2018-01-27T01:23:22.930Z,94.56
2018-01-27T01:24:50.168Z,94.80
2018-01-27T01:26:13.411Z,94.76
2018-01-27T01:27:40.681Z,94.79
2018-01-27T01:29:07.853Z,94.38
2018-01-27T01:30:35.155Z,94.70
2018-01-27T01:32:02.376Z,94.90
2018-01-27T01:33:29.635Z,95.43
2018-01-27T01:35:00.806Z,95.41
2018-01-27T01:36:29.081Z,95.74
2018-01-27T01:37:51.437Z,95.78
2018-01-27T01:39:18.551Z,95.60
2018-01-27T01:40:49.686Z,95.37
2018-01-27T01:42:12.713Z,95.16
2018-01-27T01:43:40.074Z,95.34
2018-01-27T01:45:07.337Z,95.64
2018-01-27T01:46:34.680Z,96.01
2018-01-27T01:48:01.868Z,96.28
2018-01-27T01:49:33.163Z,96.03
2018-01-27T01:50:56.157Z,95.77
2018-01-27T01:52:27.627Z,95.49
2018-01-27T01:53:50.778Z,95.32
2018-01-27T01:55:22.044Z,95.07
2018-01-27T01:56:49.149Z,94.85
2018-01-27T01:58:12.458Z,94.52
2018-01-27T01:59:39.990Z,94.12
2018-01-27T02:01:07.372Z,94.22
2018-01-27T02:02:38.741Z,94.29
2018-01-27T02:04:02.058Z,94.64
2018-01-27T02:05:29.172Z,94.89
2018-01-27T02:06:56.084Z,94.42
2018-01-27T02:08:23.230Z,94.57
2018-01-27T02:09:50.579Z,94.82
2018-01-27T02:11:18.011Z,94.86
2018-01-27T02:12:45.434Z,94.36
2018-01-27T02:14:16.603Z,94.45
2018-01-27T02:15:39.708Z,94.53
2018-01-27T02:17:06.930Z,94.32
2018-01-27T02:18:34.429Z,94.23
2018-01-27T02:20:05.306Z,93.93
2018-01-27T02:21:28.328Z,93.19
2018-01-27T02:22:55.678Z,93.03
2018-01-27T02:24:22.999Z,93.45
2018-01-27T02:25:50.048Z,93.69
2018-01-27T02:27:17.345Z,93.30
2018-01-27T02:28:48.609Z,93.43
2018-01-27T02:30:11.887Z,93.21
2018-01-27T02:31:43.102Z,92.82
2018-01-27T02:33:06.501Z,93.05
2018-01-27T02:34:33.768Z,93.19
2018-01-27T02:36:04.912Z,93.09
2018-01-27T02:37:27.905Z,92.85
2018-01-27T02:38:55.082Z,92.77
2018-01-27T02:40:26.356Z,92.56
2018-01-27T02:41:53.269Z,92.70
2018-01-27T02:43:20.602Z,92.69
2018-01-27T02:44:43.690Z,92.45
2018-01-27T02:46:11.071Z,92.23
2018-01-27T02:47:38.474Z,92.27
2018-01-27T02:49:05.418Z,91.80
2018-01-27T02:50:36.721Z,91.83
2018-01-27T02:52:04.009Z,91.81
2018-01-27T02:53:30.971Z,91.89
2018-01-27T02:54:54.348Z,91.95
2018-01-27T02:56:21.740Z,91.84
2018-01-27T02:57:49.015Z,91.73
2018-01-27T02:59:20.298Z,91.74
2018-01-27T03:00:47.725Z,91.46
2018-01-27T03:02:11.136Z,91.69
2018-01-27T03:03:38.475Z,91.64
2018-01-27T03:05:09.743Z,91.44
2018-01-27T03:06:37.072Z,91.33
2018-01-27T03:08:04.304Z,90.92
2018-01-27T03:09:27.457Z,91.37
2018-01-27T03:10:54.811Z,91.23
2018-01-27T03:12:22.126Z,90.83
2018-01-27T03:13:53.274Z,91.14
2018-01-27T03:15:16.654Z,91.65
2018-01-27T03:16:43.946Z,91.62
2018-01-27T03:18:11.345Z,91.28
2018-01-27T03:19:38.606Z,91.69
2018-01-27T03:21:09.911Z,91.88
2018-01-27T03:22:33.131Z,92.31
2018-01-27T03:24:00.090Z,92.29
2018-01-27T03:25:27.248Z,92.12
2018-01-27T03:26:54.670Z,92.14
2018-01-27T03:28:22.082Z,92.19
2018-01-27T03:29:49.326Z,91.71
2018-01-27T03:31:16.381Z,91.74
2018-01-27T03:32:47.744Z,91.40
2018-01-27T03:34:10.947Z,91.36
2018-01-27T03:35:42.187Z,91.24
2018-01-27T03:37:05.463Z,91.19
2018-01-27T03:38:32.719Z,91.10
2018-01-27T03:39:59.911Z,90.92
2018-01-27T03:41:30.844Z,90.90
2018-01-27T03:42:54.155Z,90.89
2018-01-27T03:44:21.378Z,90.83
2018-01-27T03:45:48.805Z,90.92
2018-01-27T03:47:15.786Z,91.18
2018-01-27T03:48:42.875Z,91.06
2018-01-27T03:50:10.213Z,91.49
2018-01-27T03:51:41.446Z,91.12
2018-01-27T03:53:04.835Z,91.48
2018-01-27T03:54:31.955Z,91.61
2018-01-27T03:56:03.170Z,91.37
2018-01-27T03:57:26.116Z,92.22
2018-01-27T03:58:53.346Z,91.80
2018-01-27T04:00:24.638Z,91.65
2018-01-27T04:01:48.231Z,92.06
2018-01-27T04:03:19.681Z,91.72
2018-01-27T04:04:42.966Z,91.97
2018-01-27T04:06:09.982Z,92.39
2018-01-27T04:07:37.313Z,92.39
2018-01-27T04:09:04.690Z,92.53
2018-01-27T04:10:35.951Z,92.71
2018-01-27T04:11:59.096Z,92.58
2018-01-27T04:13:30.378Z,92.96
2018-01-27T04:14:53.598Z,92.99
2018-01-27T04:16:20.729Z,93.08
2018-01-27T04:17:48.030Z,93.30
2018-01-27T04:19:15.222Z,93.43
2018-01-27T04:20:42.592Z,93.67
2018-01-27T04:22:13.826Z,93.81
2018-01-27T04:23:37.170Z,93.90
2018-01-27T04:25:08.465Z,94.36
2018-01-27T04:26:31.358Z,94.28
2018-01-27T04:27:58.536Z,94.18
2018-01-27T04:29:25.852Z,94.13
2018-01-27T04:30:52.866Z,93.97
2018-01-27T04:32:20.018Z,94.04
2018-01-27T04:33:51.290Z,94.60
2018-01-27T04:35:14.697Z,94.64
2018-01-27T04:36:45.840Z,94.56
2018-01-27T04:38:09.150Z,94.34
2018-01-27T04:39:36.350Z,94.11
2018-01-27T04:41:03.697Z,93.87
2018-01-27T04:42:35.068Z,93.67
2018-01-27T04:43:58.200Z,92.97
2018-01-27T04:45:25.612Z,93.47
2018-01-27T04:46:56.567Z,93.67
2018-01-27T04:48:19.925Z,93.42
2018-01-27T04:49:47.184Z,93.77
2018-01-27T04:51:14.312Z,93.78
2018-01-27T04:52:41.565Z,93.85
2018-01-27T04:54:08.997Z,93.67
2018-01-27T04:55:35.947Z,93.27
2018-01-27T04:57:03.159Z,93.37
2018-01-27T04:58:30.512Z,93.52
2018-01-27T04:59:57.409Z,93.54
2018-01-27T05:01:24.752Z,93.76
2018-01-27T05:02:56.144Z,93.22
2018-01-27T05:04:19.376Z,93.34
2018-01-27T05:05:50.721Z,93.75
2018-01-27T05:07:13.991Z,94.07
2018-01-27T05:08:41.168Z,93.80
2018-01-27T05:10:08.518Z,93.88
2018-01-27T05:11:39.635Z,94.04
2018-01-27T05:13:02.957Z,93.58
2018-01-27T05:14:34.147Z,93.97
2018-01-27T05:15:57.116Z,93.88
2018-01-27T05:17:24.195Z,93.84
2018-01-27T05:18:55.488Z,93.66
2018-01-27T05:20:18.825Z,93.33
2018-01-27T05:21:49.861Z,93.02
2018-01-27T05:23:13.134Z,92.82
2018-01-27T05:24:40.356Z,92.52
2018-01-27T05:26:11.358Z,92.30
2018-01-27T05:27:34.422Z,92.18
2018-01-27T05:29:01.640Z,91.89
2018-01-27T05:30:32.783Z,92.53
2018-01-27T05:31:56.028Z,92.96
2018-01-27T05:33:23.184Z,92.75
2018-01-27T05:34:54.151Z,93.14
2018-01-27T05:36:21.224Z,93.03
2018-01-27T05:37:44.571Z,92.67
2018-01-27T05:39:11.780Z,92.63
2018-01-27T05:40:39.055Z,92.80
2018-01-27T05:42:10.211Z,92.41
2018-01-27T05:43:37.238Z,92.92
2018-01-27T05:45:00.532Z,92.42
2018-01-27T05:46:27.595Z,92.60
2018-01-27T05:47:54.971Z,92.43
2018-01-27T05:49:26.209Z,92.32
2018-01-27T05:50:53.570Z,92.16
2018-01-27T05:52:16.841Z,92.75
2018-01-27T05:53:43.813Z,92.34
2018-01-27T05:55:10.919Z,92.54
2018-01-27T05:56:42.128Z,93.16
2018-01-27T05:58:09.210Z,92.65
2018-01-27T05:59:32.552Z,92.77
2018-01-27T06:00:59.764Z,93.22
2018-01-27T06:02:30.700Z,93.23
2018-01-27T06:03:53.894Z,93.58
2018-01-27T06:05:21.222Z,93.35
2018-01-27T06:06:48.584Z,93.28
2018-01-27T06:08:15.723Z,93.70
2018-01-27T06:09:42.563Z,93.23
2018-01-27T06:11:13.752Z,93.32
2018-01-27T06:12:36.991Z,93.44
2018-01-27T06:14:04.154Z,93.24
2018-01-27T06:15:31.368Z,93.09
2018-01-27T06:17:02.505Z,93.09
2018-01-27T06:18:25.818Z,93.01
2018-01-27T06:19:53.049Z,92.73
2018-01-27T06:21:20.437Z,92.58
2018-01-27T06:22:47.328Z,92.60
2018-01-27T06:24:18.496Z,92.57
2018-01-27T06:25:41.886Z,92.39
2018-01-27T06:27:09.119Z,92.72
2018-01-27T06:28:40.114Z,92.35
2018-01-27T06:30:07.414Z,92.41
2018-01-27T06:31:34.655Z,92.19
2018-01-27T06:32:57.886Z,92.02
2018-01-27T06:34:24.797Z,91.98
2018-01-27T06:35:56.012Z,92.05
2018-01-27T06:37:18.975Z,91.93
2018-01-27T06:38:46.139Z,92.45
2018-01-27T06:40:13.553Z,92.46
2018-01-27T06:41:40.716Z,92.30
2018-01-27T06:43:11.600Z,92.17
2018-01-27T06:44:34.646Z,92.11
2018-01-27T06:46:05.856Z,92.63
2018-01-27T06:47:33.137Z,93.29
2018-01-27T06:48:56.034Z,93.35
2018-01-27T06:50:23.128Z,93.35
2018-01-27T06:51:50.525Z,93.22
2018-01-27T06:53:17.661Z,93.14
2018-01-27T06:54:49.046Z,93.00
2018-01-27T06:56:12.221Z,92.78
2018-01-27T06:57:39.334Z,92.70
2018-01-27T06:59:06.594Z,92.64
2018-01-27T07:00:33.842Z,93.29
2018-01-27T07:02:04.984Z,93.36
2018-01-27T07:03:28.061Z,93.25
2018-01-27T07:04:55.254Z,93.50
2018-01-27T07:06:22.396Z,93.37
2018-01-27T07:07:49.428Z,93.55
2018-01-27T07:09:16.835Z,93.48
2018-01-27T07:10:44.039Z,93.39
2018-01-27T07:12:15.335Z,93.12
2018-01-27T07:13:38.571Z,92.97
2018-01-27T07:15:05.950Z,92.79
2018-01-27T07:16:32.667Z,92.76
2018-01-27T07:17:59.903Z,92.90
2018-01-27T07:19:27.067Z,92.67
2018-01-27T07:20:58.290Z,92.99
2018-01-27T07:22:21.666Z,92.91
2018-01-27T07:23:48.837Z,92.84
2018-01-27T07:25:19.916Z,92.74
2018-01-27T07:26:47.257Z,92.54
2018-01-27T07:28:10.653Z,93.05
2018-01-27T07:29:37.481Z,93.05
2018-01-27T07:31:08.745Z,93.21
2018-01-27T07:32:35.968Z,93.09
2018-01-27T07:33:59.043Z,93.02
2018-01-27T07:35:30.574Z,93.06
2018-01-27T07:36:57.978Z,92.81
2018-01-27T07:38:21.317Z,92.92
2018-01-27T07:39:52.593Z,93.35
2018-01-27T07:41:21.064Z,93.58
2018-01-27T07:42:43.392Z,93.63
2018-01-27T07:44:10.655Z,93.77
2018-01-27T07:45:41.894Z,94.15
2018-01-27T07:47:05.136Z,94.15
2018-01-27T07:48:32.490Z,94.17
2018-01-27T07:49:59.536Z,93.77
2018-01-27T07:51:26.610Z,94.03
2018-01-27T07:52:53.612Z,93.69
2018-01-27T07:54:20.843Z,93.32
2018-01-27T07:55:48.121Z,93.14
2018-01-27T07:57:19.025Z,93.18
2018-01-27T07:58:42.276Z,93.41
2018-01-27T08:00:09.150Z,93.30
2018-01-27T08:01:36.516Z,93.12
2018-01-27T08:03:07.702Z,93.04
2018-01-27T08:04:30.794Z,93.27
2018-01-27T08:05:58.057Z,92.83
2018-01-27T08:07:29.334Z,92.32
2018-01-27T08:08:52.700Z,92.39
2018-01-27T08:10:19.944Z,92.17
2018-01-27T08:11:47.308Z,91.86
2018-01-27T08:13:14.565Z,92.03
2018-01-27T08:14:45.788Z,91.99
2018-01-27T08:16:13.142Z,91.77
2018-01-27T08:17:36.442Z,91.39
2018-01-27T08:19:03.810Z,91.36
2018-01-27T08:20:34.999Z,91.54
2018-01-27T08:22:02.042Z,91.75
2018-01-27T08:23:25.293Z,91.34
2018-01-27T08:24:52.618Z,90.96
2018-01-27T08:26:19.853Z,90.85
2018-01-27T08:27:47.014Z,91.00
2018-01-27T08:29:18.349Z,91.14
2018-01-27T08:30:45.713Z,90.74
2018-01-27T08:32:08.854Z,90.74
2018-01-27T08:33:36.271Z,90.73
2018-01-27T08:35:03.364Z,90.70
2018-01-27T08:36:30.275Z,90.56
2018-01-27T08:37:57.374Z,90.70
2018-01-27T08:39:24.777Z,90.51
2018-01-27T08:40:52.170Z,90.39
2018-01-27T08:42:19.394Z,90.08
2018-01-27T08:43:46.837Z,89.96
2018-01-27T08:45:14.162Z,90.07
2018-01-27T08:46:41.420Z,90.18
2018-01-27T08:48:12.509Z,90.23
2018-01-27T08:49:39.836Z,90.27
2018-01-27T08:51:02.979Z,90.08
2018-01-27T08:52:34.294Z,90.17
2018-01-27T08:53:57.387Z,89.96
2018-01-27T08:55:24.615Z,89.93
2018-01-27T08:56:55.822Z,89.74
2018-01-27T08:58:23.191Z,89.72
2018-01-27T08:59:46.290Z,89.45
2018-01-27T09:01:13.272Z,89.48
2018-01-27T09:02:40.710Z,89.66
2018-01-27T09:04:07.746Z,89.39
2018-01-27T09:05:35.106Z,89.44
2018-01-27T09:07:06.314Z,89.62
2018-01-27T09:08:33.566Z,89.58
2018-01-27T09:09:56.520Z,89.40
2018-01-27T09:11:23.707Z,89.31
2018-01-27T09:12:51.128Z,89.41
2018-01-27T09:14:22.320Z,89.50
2018-01-27T09:15:49.637Z,89.59
2018-01-27T09:17:13.038Z,89.25
2018-01-27T09:18:40.208Z,89.31
2018-01-27T09:20:07.517Z,89.29
2018-01-27T09:21:38.770Z,89.36
2018-01-27T09:23:05.993Z,89.43
2018-01-27T09:24:33.333Z,89.39
2018-01-27T09:26:00.490Z,89.59
2018-01-27T09:27:23.945Z,89.60
2018-01-27T09:28:54.957Z,89.63
2018-01-27T09:30:18.245Z,89.56
2018-01-27T09:31:45.475Z,89.61
2018-01-27T09:33:16.832Z,89.41
2018-01-27T09:34:44.266Z,89.32
2018-01-27T09:36:07.403Z,89.24
2018-01-27T09:37:34.603Z,89.22
2018-01-27T09:39:01.939Z,89.58
2018-01-27T09:40:29.240Z,89.33
2018-01-27T09:41:56.158Z,89.41
2018-01-27T09:43:27.453Z,89.15
2018-01-27T09:44:50.746Z,89.23
2018-01-27T09:46:17.998Z,89.38
2018-01-27T09:47:45.294Z,89.33
2018-01-27T09:49:12.572Z,89.81
2018-01-27T09:50:39.910Z,89.20
2018-01-27T09:52:11.172Z,89.07
2018-01-27T09:53:34.450Z,89.14
2018-01-27T09:55:01.714Z,88.76
2018-01-27T09:56:32.849Z,88.52
2018-01-27T09:57:56.344Z,88.38
2018-01-27T09:59:23.506Z,88.56
2018-01-27T10:00:50.611Z,88.39
2018-01-27T10:02:21.810Z,88.62
2018-01-27T10:03:44.765Z,88.52
2018-01-27T10:05:12.072Z,88.80
2018-01-27T10:06:43.516Z,88.16
2018-01-27T10:08:06.777Z,88.53
2018-01-27T10:09:34.034Z,88.61
2018-01-27T10:11:05.172Z,88.28
2018-01-27T10:12:28.232Z,87.61
2018-01-27T10:13:55.614Z,87.49
2018-01-27T10:15:26.932Z,87.89
2018-01-27T10:16:50.262Z,87.54
2018-01-27T10:18:17.536Z,87.22
2018-01-27T10:19:44.647Z,87.23
2018-01-27T10:21:12.091Z,87.38
2018-01-27T10:22:43.269Z,87.97
2018-01-27T10:24:10.617Z,88.00
2018-01-27T10:25:34.017Z,88.08
2018-01-27T10:27:05.114Z,88.79
2018-01-27T10:28:32.179Z,88.64
2018-01-27T10:29:55.365Z,88.54
2018-01-27T10:31:22.608Z,88.42
2018-01-27T10:32:53.767Z,88.63
2018-01-27T10:34:17.166Z,89.00
2018-01-27T10:35:44.283Z,88.66
2018-01-27T10:37:11.588Z,88.06
2018-01-27T10:38:39.002Z,87.74
2018-01-27T10:40:10.108Z,87.57
2018-01-27T10:41:37.359Z,87.29
2018-01-27T10:43:04.605Z,87.58
2018-01-27T10:44:31.871Z,87.93
2018-01-27T10:45:59.272Z,87.80
2018-01-27T10:47:22.500Z,87.60
2018-01-27T10:48:49.856Z,87.56
2018-01-27T10:50:17.255Z,88.22
2018-01-27T10:51:44.514Z,87.65
2018-01-27T10:53:11.834Z,87.43
2018-01-27T10:54:43.279Z,87.78
2018-01-27T10:56:06.493Z,87.92
2018-01-27T10:57:33.890Z,87.77
2018-01-27T10:59:04.964Z,87.34
2018-01-27T11:00:28.150Z,87.61
2018-01-27T11:01:55.364Z,87.74
2018-01-27T11:03:22.666Z,87.52
2018-01-27T11:04:53.943Z,87.45
2018-01-27T11:06:17.317Z,87.63
2018-01-27T11:07:44.673Z,87.45
2018-01-27T11:09:16.010Z,87.36
2018-01-27T11:10:39.281Z,87.15
2018-01-27T11:12:06.517Z,87.49
2018-01-27T11:13:37.813Z,87.49
2018-01-27T11:15:00.972Z,87.22
2018-01-27T11:16:32.188Z,87.47
2018-01-27T11:17:59.627Z,87.70
2018-01-27T11:19:26.876Z,87.73
2018-01-27T11:20:50.259Z,88.30
2018-01-27T11:22:17.410Z,88.58
2018-01-27T11:23:48.592Z,88.78
2018-01-27T11:25:11.973Z,88.85
2018-01-27T11:26:39.148Z,88.44
2018-01-27T11:28:10.400Z,88.48
2018-01-27T11:29:33.570Z,88.59
2018-01-27T11:31:00.803Z,88.31
2018-01-27T11:32:27.949Z,88.53
2018-01-27T11:33:55.230Z,88.44
2018-01-27T11:35:22.692Z,88.33
2018-01-27T11:36:50.078Z,88.30
2018-01-27T11:38:21.140Z,88.09
2018-01-27T11:39:48.517Z,87.94
2018-01-27T11:41:15.739Z,88.06
2018-01-27T11:42:42.527Z,88.16
2018-01-27T11:44:09.841Z,88.26
2018-01-27T11:45:36.692Z,88.12
2018-01-27T11:46:59.975Z,88.15
2018-01-27T11:48:27.040Z,88.18
2018-01-27T11:49:54.323Z,88.31
2018-01-27T11:51:25.355Z,88.22
2018-01-27T11:52:48.740Z,88.04
2018-01-27T11:54:16.036Z,88.16
2018-01-27T11:55:47.032Z,88.12
2018-01-27T11:57:10.097Z,88.22
2018-01-27T11:58:41.394Z,88.42
2018-01-27T12:00:04.816Z,88.41
2018-01-27T12:01:32.029Z,88.47
2018-01-27T12:02:59.307Z,88.25
2018-01-27T12:04:26.346Z,88.25
2018-01-27T12:05:57.557Z,88.04
2018-01-27T12:07:20.786Z,88.03
2018-01-27T12:08:51.679Z,87.98
2018-01-27T12:10:15.021Z,88.13
2018-01-27T12:11:46.010Z,88.05
2018-01-27T12:13:12.921Z,87.82
2018-01-27T12:14:36.126Z,88.13
2018-01-27T12:16:03.381Z,88.00
2018-01-27T12:17:30.398Z,87.88
2018-01-27T12:18:57.644Z,88.25
2018-01-27T12:20:24.938Z,88.07
2018-01-27T12:21:55.983Z,88.41
2018-01-27T12:23:23.411Z,88.78
2018-01-27T12:24:46.652Z,88.15
2018-01-27T12:26:13.869Z,88.06
2018-01-27T12:27:41.082Z,88.34
2018-01-27T12:29:12.324Z,88.71
2018-01-27T12:30:35.570Z,88.77
2018-01-27T12:32:06.797Z,88.20
2018-01-27T12:33:30.077Z,88.16
2018-01-27T12:35:01.109Z,88.09
2018-01-27T12:36:24.400Z,87.67
2018-01-27T12:37:51.789Z,87.12
2018-01-27T12:39:23.122Z,87.04
2018-01-27T12:40:50.518Z,87.35
2018-01-27T12:42:13.995Z,87.82
2018-01-27T12:43:45.071Z,87.56
2018-01-27T12:45:08.410Z,87.16
2018-01-27T12:46:35.387Z,86.69
2018-01-27T12:48:06.630Z,86.93
2018-01-27T12:49:29.691Z,87.10
2018-01-27T12:50:56.708Z,87.32
2018-01-27T12:52:23.931Z,86.68
2018-01-27T12:53:51.241Z,87.00
2018-01-27T12:55:18.602Z,86.80
2018-01-27T12:56:45.862Z,86.81
2018-01-27T12:58:13.004Z,86.50
2018-01-27T12:59:40.213Z,86.11
2018-01-27T13:01:07.527Z,86.02
2018-01-27T13:02:38.639Z,85.42
2018-01-27T13:04:01.968Z,84.72
2018-01-27T13:05:33.221Z,84.16
2018-01-27T13:07:00.585Z,83.85
2018-01-27T13:08:24.057Z,84.02
2018-01-27T13:09:55.240Z,83.74
2018-01-27T13:11:18.656Z,84.23
2018-01-27T13:12:46.053Z,84.49
2018-01-27T13:14:13.365Z,84.11
2018-01-27T13:15:40.608Z,83.72
2018-01-27T13:17:07.683Z,83.26
2018-01-27T13:18:35.062Z,83.33
2018-01-27T13:20:02.031Z,83.43
2018-01-27T13:21:29.342Z,83.42
2018-01-27T13:23:00.352Z,83.69
2018-01-27T13:24:23.595Z,83.92
2018-01-27T13:25:50.811Z,83.74
2018-01-27T13:27:22.091Z,83.68
2018-01-27T13:28:49.219Z,83.78
2018-01-27T13:30:12.533Z,83.53
2018-01-27T13:31:39.894Z,82.85
2018-01-27T13:33:07.034Z,82.65
2018-01-27T13:34:34.388Z,82.34
2018-01-27T13:36:05.651Z,81.83
2018-01-27T13:37:28.656Z,81.77
2018-01-27T13:38:55.929Z,82.21
2018-01-27T13:40:23.267Z,81.03
2018-01-27T13:41:50.453Z,81.08
2018-01-27T13:43:17.680Z,82.03
2018-01-27T13:44:45.051Z,82.59
2018-01-27T13:46:12.257Z,82.32
2018-01-27T13:47:39.659Z,82.69
2018-01-27T13:49:06.898Z,82.74
2018-01-27T13:50:34.170Z,82.70
2018-01-27T13:52:05.166Z,82.65
2018-01-27T13:53:28.332Z,82.57
2018-01-27T13:54:55.764Z,81.95
2018-01-27T13:56:23.019Z,81.92
2018-01-27T13:57:50.344Z,82.38
2018-01-27T13:59:17.754Z,82.55
2018-01-27T14:00:48.989Z,83.08
2018-01-27T14:02:16.184Z,82.90
2018-01-27T14:03:39.313Z,82.45
2018-01-27T14:05:10.779Z,82.62
2018-01-27T14:06:37.996Z,82.38
2018-01-27T14:08:01.302Z,81.80
2018-01-27T14:09:28.596Z,82.15
2018-01-27T14:10:59.780Z,82.31
2018-01-27T14:12:27.173Z,82.05
2018-01-27T14:13:50.530Z,82.58
2018-01-27T14:15:17.885Z,82.61
2018-01-27T14:16:49.191Z,83.13
2018-01-27T14:18:12.526Z,83.29
2018-01-27T14:19:39.805Z,83.42
2018-01-27T14:21:07.196Z,83.52
2018-01-27T14:22:38.511Z,83.73
2018-01-27T14:24:01.772Z,83.94
2018-01-27T14:25:29.013Z,84.24
2018-01-27T14:26:56.094Z,84.01
2018-01-27T14:28:23.438Z,83.55
2018-01-27T14:29:54.424Z,83.51
2018-01-27T14:31:17.842Z,83.72
2018-01-27T14:32:45.074Z,83.60
2018-01-27T14:34:12.533Z,83.69
2018-01-27T14:35:39.919Z,83.32
2018-01-27T14:37:07.136Z,83.21
2018-01-27T14:38:34.272Z,83.32
2018-01-27T14:40:05.376Z,83.54
2018-01-27T14:41:28.471Z,83.87
2018-01-27T14:42:59.764Z,83.95
2018-01-27T14:44:23.060Z,83.97
2018-01-27T14:45:50.478Z,83.67
2018-01-27T14:47:17.758Z,83.81
2018-01-27T14:48:49.122Z,84.08
2018-01-27T14:50:16.361Z,84.25
2018-01-27T14:51:43.656Z,83.83
2018-01-27T14:53:07.195Z,83.99
2018-01-27T14:54:38.262Z,83.97
2018-01-27T14:56:05.478Z,83.74
2018-01-27T14:57:28.843Z,83.97
2018-01-27T14:58:56.179Z,83.98
2018-01-27T15:00:23.244Z,83.90
2018-01-27T15:01:50.491Z,83.81
2018-01-27T15:03:21.570Z,83.67
2018-01-27T15:04:44.854Z,83.84
2018-01-27T15:06:16.125Z,83.81
2018-01-27T15:07:39.383Z,83.94
2018-01-27T15:09:06.782Z,84.21
2018-01-27T15:10:33.911Z,84.11
2018-01-27T15:12:00.973Z,84.25
2018-01-27T15:14:55.382Z,84.50
2018-01-27T15:16:26.698Z,84.18
2018-01-27T15:17:49.689Z,84.44
2018-01-27T15:19:21.057Z,84.82
2018-01-27T15:20:44.414Z,84.86
2018-01-27T15:22:11.844Z,84.93
2018-01-27T15:23:43.232Z,84.91
2018-01-27T15:25:06.431Z,85.22
2018-01-27T15:26:33.774Z,85.54
2018-01-27T15:28:05.066Z,85.70
2018-01-27T15:29:28.338Z,85.72
2018-01-27T15:30:59.552Z,85.98
2018-01-27T15:32:23.001Z,86.20
2018-01-27T15:33:50.350Z,86.33
2018-01-27T15:35:17.686Z,86.63
2018-01-27T15:36:45.028Z,86.56
2018-01-27T15:38:16.443Z,86.88
2018-01-27T15:39:43.778Z,86.64
2018-01-27T15:41:07.120Z,86.88
2018-01-27T15:42:34.447Z,86.83
2018-01-27T15:44:01.548Z,86.89
2018-01-27T15:45:28.754Z,87.00
2018-01-27T15:46:56.069Z,87.00
2018-01-27T15:48:23.307Z,87.15
2018-01-27T15:49:54.612Z,87.12
2018-01-27T15:51:22.077Z,87.26
2018-01-27T15:52:45.387Z,87.28
2018-01-27T15:54:16.371Z,87.39
2018-01-27T15:55:39.364Z,87.37
2018-01-27T15:57:06.340Z,87.40
2018-01-27T15:58:37.393Z,87.57
2018-01-27T16:00:04.128Z,87.62
2018-01-27T16:01:27.301Z,87.65
2018-01-27T16:02:54.719Z,87.70
2018-01-27T16:04:25.947Z,87.78
2018-01-27T16:05:49.365Z,87.75
2018-01-27T16:07:20.564Z,87.77
2018-01-27T16:08:47.950Z,87.95
2018-01-27T16:10:15.212Z,87.90
2018-01-27T16:11:38.432Z,87.87
2018-01-27T16:13:05.762Z,87.96
2018-01-27T16:14:32.998Z,87.88
2018-01-27T16:16:00.335Z,88.16
2018-01-27T16:17:27.331Z,88.26
2018-01-27T16:18:54.571Z,88.26
2018-01-27T16:20:21.799Z,88.08
2018-01-27T16:21:49.138Z,88.06
2018-01-27T16:23:20.436Z,87.86
2018-01-27T16:24:43.755Z,87.94
2018-01-27T16:26:10.851Z,87.88
2018-01-27T16:27:42.075Z,88.20
2018-01-27T16:29:05.373Z,87.79
2018-01-27T16:30:32.512Z,87.82
2018-01-27T16:32:03.601Z,87.92
2018-01-27T16:33:26.401Z,87.68
2018-01-27T16:34:53.781Z,87.82
2018-01-27T16:36:24.581Z,87.70
2018-01-27T16:37:51.982Z,87.52
2018-01-27T16:39:19.251Z,87.64
2018-01-27T16:40:46.457Z,87.65
2018-01-27T16:42:13.659Z,87.48
2018-01-27T16:43:36.753Z,87.24
2018-01-27T16:45:08.041Z,87.04
2018-01-27T16:46:31.223Z,86.84
2018-01-27T16:48:02.372Z,86.56
2018-01-27T16:49:25.642Z,86.31
2018-01-27T16:50:56.590Z,85.96
2018-01-27T16:52:19.965Z,85.96
2018-01-27T16:53:47.231Z,85.67
2018-01-27T16:55:18.380Z,85.98
2018-01-27T16:56:45.741Z,85.72
2018-01-27T16:58:12.937Z,85.81
2018-01-27T16:59:40.213Z,85.79
2018-01-27T17:01:03.084Z,85.94
2018-01-27T17:02:34.321Z,85.80
2018-01-27T17:03:57.500Z,85.92
2018-01-27T17:05:24.552Z,85.85
2018-01-27T17:06:51.830Z,86.02
2018-01-27T17:08:23.126Z,86.08
2018-01-27T17:09:46.366Z,85.97
2018-01-27T17:11:13.716Z,86.21
2018-01-27T17:12:45.041Z,86.01
2018-01-27T17:14:08.366Z,86.00
2018-01-27T17:15:39.756Z,86.13
2018-01-27T17:17:06.891Z,86.09
2018-01-27T17:18:29.926Z,86.15
2018-01-27T17:19:56.918Z,85.99
2018-01-27T17:21:24.308Z,85.95
2018-01-27T17:22:51.682Z,85.96
2018-01-27T17:24:19.051Z,85.93
2018-01-27T17:25:46.360Z,85.81
2018-01-27T17:27:13.680Z,85.94
2018-01-27T17:28:40.977Z,86.00
2018-01-27T17:30:08.162Z,86.20
2018-01-27T17:31:39.389Z,86.00
2018-01-27T17:33:02.450Z,85.98
2018-01-27T17:34:29.671Z,85.92
2018-01-27T17:35:56.654Z,85.66
2018-01-27T17:37:24.068Z,85.55
2018-01-27T17:38:51.457Z,85.61
2018-01-27T17:40:22.730Z,85.90
2018-01-27T17:41:45.950Z,86.08
2018-01-27T17:43:13.277Z,85.99
2018-01-27T17:44:40.541Z,86.18
2018-01-27T17:46:07.762Z,86.03
2018-01-27T17:47:35.098Z,85.99
2018-01-27T17:49:06.240Z,85.85
2018-01-27T17:50:29.372Z,85.92
2018-01-27T17:52:00.656Z,85.99
2018-01-27T17:53:27.880Z,85.85
2018-01-27T17:54:51.207Z,86.06
2018-01-27T17:56:22.484Z,85.98
2018-01-27T17:57:45.792Z,85.88
2018-01-27T17:59:13.180Z,85.84
2018-01-27T18:00:40.419Z,85.91
2018-01-27T18:02:07.558Z,85.74
2018-01-27T18:03:34.893Z,85.85
2018-01-27T18:05:06.261Z,85.99
2018-01-27T18:06:33.336Z,85.90
2018-01-27T18:07:56.727Z,86.00
2018-01-27T18:09:28.101Z,86.03
2018-01-27T18:10:51.374Z,85.78
2018-01-27T18:12:22.636Z,85.45
2018-01-27T18:13:45.982Z,85.44
2018-01-27T18:15:13.237Z,85.73
2018-01-27T18:16:40.436Z,85.47
2018-01-27T18:18:11.774Z,85.25
2018-01-27T18:19:34.894Z,85.19
2018-01-27T18:21:02.139Z,85.30
2018-01-27T18:22:29.158Z,84.85
2018-01-27T18:23:56.267Z,84.87
2018-01-27T18:25:23.578Z,84.88
2018-01-27T18:26:50.965Z,84.68
2018-01-27T18:28:18.169Z,84.69
2018-01-27T18:29:49.449Z,84.91
2018-01-27T18:31:12.827Z,85.12
2018-01-27T18:32:39.978Z,84.81
2018-01-27T18:34:07.202Z,84.95
2018-01-27T18:35:38.545Z,85.06
2018-01-27T18:37:05.915Z,85.14
2018-01-27T18:38:29.218Z,85.12
2018-01-27T18:39:56.676Z,85.08
2018-01-27T18:41:28.083Z,85.05
2018-01-27T18:42:51.409Z,85.23
2018-01-27T18:44:22.725Z,85.18